Gio Acosta

Olheiro - Seattle Sounders
20 Fev 2028
Domingo
Processo

Personalidade

Adaptabilidade (6) Ambição (10) Controvérsia (3) Lealdade (15) Pressão (17) Profissionalismo (7) Espírito Esportivo (6) Temperamento (3)

Perfil

Estilo de Treinamento Democrático
Licença Continental B
Determinação 11
Gestão de Pessoas 9
Motivação 5
Disciplina 6
Satisfação no Trabalho
100%
Fadiga
0%
Função Olheiro
Salário 54.1K p/s
Contrato 14.03.2029

Desempenho

Comportamento Bom
Eficácia do Treinamento
39%
Desenvolvimento do Jogador
25%
Prevenção de Lesões
45%
Implementação Tática
25%

Eventos Recentes

Participou de uma reunião de recrutamento 7d atrás
Participou de uma reunião de recrutamento 7d atrás
Participou de uma reunião de recrutamento 7d atrás
Participou de uma reunião de recrutamento 7d atrás
Avaliou um jogador 7d atrás
Participou de uma reunião de recrutamento 14d atrás
Participou de uma reunião de recrutamento 14d atrás
Participou de uma reunião de recrutamento 14d atrás

Monitorando agora

119
Jogador Clube Status Habilidade Confiança Observado Última observação Último voto
Yeremy Pino Crystal Palace Ativo 156 / 148 40% 1 12.02.2028 -
Marcelo Allende Mamelodi Sundowns Ativo 129 / 146 40% 1 12.02.2028 -
Michele Cerofolini Bari Ativo 116 / 130 40% 1 07.07.2027 -
Wessam Abou Ali Columbus Crew Ativo 139 / 136 58% 1 14.02.2027 -
Maduka Okoye Udinese Ativo 137 / 137 40% 1 13.02.2027 -
Giacomo Raspadori Atalanta Ativo 137 / 152 40% 2 12.02.2027 -
Milan van Ewijk Mansfield Town Ativo 119 / 136 40% 1 11.02.2027 -
Anton Stach Leeds United Ativo 146 / 149 40% 1 11.02.2027 Mais informações
Dara O'Shea Ipswich Town Ativo 139 / 124 40% 2 10.02.2027 -
Bosun Lawal Stoke City Ativo 141 / 138 40% 1 10.02.2027 -
Adrien Truffert Bournemouth Ativo 163 / 149 40% 1 09.02.2027 -
Welington Southampton Ativo 145 / 120 40% 1 09.02.2027 -
Caoimhin Kelleher Brentford Ativo 154 / 150 40% 1 09.02.2027 -
Robin Roefs Sunderland Ativo 131 / 152 40% 1 09.02.2027 -
Denis Adamov Zenit Ativo 135 / 129 40% 3 06.02.2027 -
Kristoffer Lund Birmingham Ativo 141 / 117 40% 2 06.02.2027 -
Hwang Hee-Chan Wolverhampton Ativo 119 / 130 40% 1 06.02.2027 -
Yoane Wissa Newcastle United Ativo 154 / 143 40% 1 06.02.2027 -
Jimmy Dunne Queens Park Rangers Ativo 128 / 127 40% 1 06.02.2027 -
Chris Mepham West Bromwich Albion Ativo 136 / 122 40% 2 04.02.2027 -
Anel Ahmedhodžić Burnley Ativo 142 / 127 40% 1 04.02.2027 -
Tyler Adams Bournemouth Ativo 141 / 141 40% 1 04.02.2027 -
Georginio Rutter Brighton Ativo 132 / 149 40% 1 04.02.2027 -
Arijanet Murić Sassuolo Ativo 148 / 131 40% 1 02.02.2027 -
Dango Ouattara Brentford Ativo 145 / 139 40% 1 31.01.2027 -
James Trafford Leeds United Ativo 129 / 133 40% 1 31.01.2027 -
Igor Burnley Ativo 154 / 145 40% 1 29.01.2027 -
Ross McCrorie Bristol City Ativo 112 / 115 40% 1 29.01.2027 -
Matt O'Riley Brighton Ativo 153 / 149 40% 1 27.01.2027 -
Harry Clarke Preston Ativo 136 / 136 40% 1 27.01.2027 -
Ibrahim Sangaré Nottingham Forest Ativo 154 / 138 40% 1 27.01.2027 -
Dávid Strelec Middlesbrough Ativo 151 / 130 40% 1 25.01.2027 -
Oli McBurnie Hull City Ativo 149 / 143 40% 1 25.01.2027 -
Callum Doyle Wrexham Ativo 135 / 122 40% 1 25.01.2027 -
Hany Mukhtar Spezia Ativo 143 / 140 40% 2 22.01.2027 Mais informações
Youssef En-Nesyri Al-Ittihad Ativo 148 / 149 40% 1 22.01.2027 -
Kwadwo Duah Ludogorets Ativo 131 / 129 40% 2 21.01.2027 -
João Victor CSKA Moscow Ativo 118 / 119 40% 1 21.01.2027 -
Théo Hernández Al-Hilal Ativo 168 / 145 40% 1 21.01.2027 -
Esequiel Barco Spartak Moscow Ativo 135 / 136 40% 1 21.01.2027 -
Nicolò Bertola Udinese Ativo 136 / 145 40% 1 18.01.2027 -
Raoul Bellanova Atalanta Ativo 165 / 148 40% 1 18.01.2027 -
Manfred Ugalde Spartak Moscow Ativo 141 / 139 40% 2 17.01.2027 -
Che Adams Torino Ativo 140 / 135 40% 2 17.01.2027 -
Jonathan Klinsmann Cesena Ativo 122 / 125 40% 1 17.01.2027 -
Gustavo Mantuan Zenit Ativo 131 / 136 40% 1 12.01.2027 -
Nikola Vasilj Al-Diriyah Ativo 127 / 126 40% 1 10.01.2027 -
Oleksandr Pikhalionok Dynamo Kyiv Ativo 135 / 129 40% 1 01.01.2027 -
Conrad Wallem Austria Wien Ativo 112 / 122 40% 4 31.12.2026 -
Yves Bissouma Tottenham Ativo 158 / 147 40% 1 31.12.2026 -
Zakaria Aboukhlal Torino Ativo 139 / 139 40% 1 29.12.2026 -
Mohamed Camara Maccabi Tel Aviv Ativo 141 / 132 40% 1 27.12.2026 -
Ruben van Bommel Ferencvaros Ativo 140 / 134 40% 1 27.12.2026 -
Bento Al-Nassr Ativo 127 / 120 40% 3 25.12.2026 Observar
João Gomes Aston Villa Ativo 125 / 141 40% 3 25.12.2026 -
Rubens Dinamo Moscow Ativo 125 / 131 40% 3 25.12.2026 -
Ignacio Chicco Aldosivi Ativo 127 / 116 40% 1 25.12.2026 -
Dayne St. Clair Inter Miami CF Ativo 125 / 118 40% 1 24.12.2026 -
Álex Centelles Levski Ativo 116 / 122 40% 1 20.12.2026 -
Wendel Zenit Ativo 153 / 139 40% 1 19.12.2026 -
Petar Stanić Ludogorets Ativo 145 / 134 40% 1 19.12.2026 -
Nobel Mendy Hull City Ativo 121 / 122 40% 2 17.12.2026 -
Lucas Souto Defensa y Justicia Ativo 121 / 116 40% 1 15.12.2026 -
Mohamed Ali Ben Romdhane Al Ahly Ativo 138 / 124 40% 2 14.12.2026 -
Bradley Tau SuperSport United Ativo 129 / 134 40% 1 12.12.2026 -
Pedro Bicalho Qarabag Ativo 113 / 139 40% 1 12.12.2026 -
Matevž Vidovšek Olimpija Ljubljana Ativo 126 / 120 40% 2 11.12.2026 -
Daniil Khudyakov Sturm Graz Ativo 121 / 127 40% 2 11.12.2026 -
Rúben Neves Al-Hilal Ativo 162 / 158 40% 5 11.12.2026 -
Felipe Augusto Zenit Ativo 133 / 131 40% 3 10.12.2026 -
Luciano Gondou CSKA Moscow Ativo 125 / 121 40% 3 08.12.2026 -
Endrick Real Madrid Ativo 150 / 141 40% 5 08.12.2026 -
Sipho Chaine Orlando Pirates Ativo 123 / 115 40% 1 06.12.2026 -
Lovre Rogić HNK Rijeka Ativo 118 / 123 40% 1 06.12.2026 -
Eduard Spertsyan Al-Ahli Ativo 125 / 140 40% 2 02.12.2026 -
Leandro Lozano Boca Juniors Ativo 142 / 137 40% 1 30.11.2026 -
Alan Lescano Argentinos Juniors Ativo 125 / 130 40% 1 30.11.2026 -
Sergio Reguilón Inter Miami CF Ativo 140 / 127 40% 1 27.11.2026 -
Bryan Ramírez FC Cincinnati Ativo 139 / 125 40% 1 26.11.2026 -
Karim Konaté Red Bull Salzburg Ativo 126 / 150 40% 3 25.11.2026 -
Maxim De Cuyper Brighton Ativo 145 / 131 40% 1 24.11.2026 -
Nicolás Romero Minnesota United FC Ativo 116 / 120 40% 1 22.11.2026 -
Marcelo Saracchi Houston Dynamo Ativo 137 / 131 40% 1 20.11.2026 -
Volodymyr Brazhko Dynamo Kyiv Ativo 128 / 120 40% 1 20.11.2026 -
Pep Biel Charlotte Football Club Ativo 120 / 128 40% 2 17.11.2026 -
Yan Diomandé Real Madrid Ativo 156 / 153 40% 1 17.11.2026 -
Luka Kurtovic NK Domzale Ativo 129 / 124 40% 1 17.11.2026 -
Adrián Marín Persepolis Ativo 114 / 122 40% 1 14.11.2026 -
Youssef Belammari Al Ahly Ativo 139 / 127 40% 1 12.11.2026 -
Igor Leschuk Dinamo Moscow Ativo 109 / 127 40% 2 10.11.2026 -
Musa Barrow Al-Khaleej Ativo 142 / 142 40% 2 07.11.2026 -
Kyrylo Fesiun Shakhtar Ativo 118 / 126 40% 2 07.11.2026 -
Roman Celentano FC Cincinnati Ativo 123 / 115 40% 1 07.11.2026 -
Martín Ojeda Orlando City Ativo 137 / 137 40% 3 02.11.2026 -
Breel Embolo Atlanta United FC Ativo 130 / 134 40% 2 30.10.2026 -
Yusuke Matsuo Esteghlal Ativo 134 / 122 40% 2 30.10.2026 -
Ivan Toney Al-Ahli Ativo 140 / 142 40% 1 28.10.2026 -
Drake Callender Minnesota United FC Ativo 131 / 126 40% 2 23.10.2026 -
Mojmír Chytil NK Maribor Ativo 134 / 137 40% 2 18.10.2026 -
Maurits Kjærgaard Red Bull Salzburg Ativo 134 / 128 40% 2 18.10.2026 -
Elias Achouri San Diego Football Club Ativo 121 / 127 40% 1 07.10.2026 -
Zack Steffen Spartak Moscow Ativo 125 / 136 40% 1 07.10.2026 -
Cristian Espinoza Nashville SC Ativo 139 / 124 40% 1 04.10.2026 -
Myrto Uzuni Austin FC Ativo 124 / 122 40% 1 03.10.2026 -
Antony Portland Timbers Ativo 140 / 126 40% 1 29.09.2026 -
Diego Romero Universitario Ativo 137 / 122 40% 1 27.09.2026 -
Bruno Varela Najran Ativo 111 / 121 40% 1 26.09.2026 -
Martin Zlomislić Qarabag Ativo 129 / 120 40% 1 22.09.2026 -
Renato Solís Sporting Cristal Ativo 129 / 127 40% 2 20.09.2026 -
Mateusz Kochalski Dynamo Kyiv Ativo 135 / 131 40% 1 19.09.2026 -
Dominik Takáč Slovan Bratislava Ativo 116 / 122 40% 1 19.09.2026 -
Pavel Bucha FC Cincinnati Ativo 127 / 137 40% 1 19.09.2026 -
Ľubomír Belko Viking Ativo 118 / 121 40% 2 16.09.2026 -
Patrick Schulte Columbus Crew Ativo 124 / 126 40% 1 16.09.2026 -
Jonathan Bamba Chicago Fire Ativo 131 / 138 40% 1 14.09.2026 -
Patrick Berg Bodo/Glimt Ativo 132 / 154 40% 1 14.09.2026 -
Gabriel Jesus Barcelona Ativo 167 / 154 40% 1 10.09.2026 -
Anders Dreyer San Diego Football Club Ativo 121 / 133 40% 1 08.09.2026 -
Peio Canales Athletic Bilbao Ativo 134 / 144 40% 1 01.08.2026 -